Time;durP1;ratioP1;P1;durP2;ratioP2;P2;SDS_P1;SDS_P2;PMS_P1;PMS_P2;Temp;Humidity;BMP_temperature;BMP_pressure;BME280_temperature;BME280_humidity;BME280_pressure;Samples;Min_cycle;Max_cycle;Signal;HPM_P1;HPM_P2
2022/06/02 00:02:13;;;;;;;;;;;21.50;36.30;;;;;;5103796;28;20018;-45
2022/06/02 00:04:52;;;;;;;;;;;20.20;38.90;;;;;;5109676;28;19928;-49
2022/06/02 00:07:19;;;;;;;;;;;19.80;39.70;;;;;;5125870;28;20431;-44
2022/06/02 00:10:00;;;;;;;;;;;20.30;38.80;;;;;;5122261;28;19935;-47
2022/06/02 00:12:31;;;;;;;;;;;21.60;36.30;;;;;;5108200;28;19928;-57
2022/06/02 00:15:03;;;;;;;;;;;21.70;36.20;;;;;;5106523;28;19969;-60
2022/06/02 00:17:38;;;;;;;;;;;21.80;35.60;;;;;;5104001;28;20314;-61
2022/06/02 00:20:11;;;;;;;;;;;21.90;35.30;;;;;;5110019;28;20014;-61
2022/06/02 00:22:49;;;;;;;;;;;21.90;35.20;;;;;;5123479;27;19967;-61
2022/06/02 00:25:24;;;;;;;;;;;21.80;35.30;;;;;;5120274;28;19970;-60
2022/06/02 00:28:16;;;;;;;;;;;21.80;35.20;;;;;;5127917;28;20030;-61
2022/06/02 00:30:44;;;;;;;;;;;21.90;35.10;;;;;;5103566;28;19930;-61
2022/06/02 00:33:21;;;;;;;;;;;21.90;35.20;;;;;;5104517;28;19923;-60
2022/06/02 00:35:54;;;;;;;;;;;22.00;35.00;;;;;;5125011;28;20262;-58
2022/06/02 00:38:22;;;;;;;;;;;22.30;34.70;;;;;;5128175;28;20378;-60
2022/06/02 00:40:48;;;;;;;;;;;22.30;34.50;;;;;;5103848;28;19944;-61
2022/06/02 00:43:29;;;;;;;;;;;22.50;34.40;;;;;;5125253;28;20211;-61
2022/06/02 00:46:20;;;;;;;;;;;22.50;34.30;;;;;;5125184;28;19941;-58
2022/06/02 00:49:05;;;;;;;;;;;21.60;35.80;;;;;;5122486;28;19927;-59
2022/06/02 00:51:40;;;;;;;;;;;21.30;36.40;;;;;;5122501;28;19934;-57
2022/06/02 01:00:04;;;;;;;;;;;21.50;35.90;;;;;;5104479;28;19930;-55
2022/06/02 01:02:31;;;;;;;;;;;20.90;36.90;;;;;;5125965;28;19930;-58
2022/06/02 01:05:00;;;;;;;;;;;21.10;37.00;;;;;;5121702;28;20306;-60
2022/06/02 01:07:49;;;;;;;;;;;21.90;35.40;;;;;;5122081;28;19939;-61
2022/06/02 01:10:27;;;;;;;;;;;22.10;35.00;;;;;;5119322;28;20076;-60
2022/06/02 01:12:59;;;;;;;;;;;22.10;35.00;;;;;;5121651;27;19929;-61
2022/06/02 01:15:38;;;;;;;;;;;22.20;34.80;;;;;;5122107;28;19924;-60
2022/06/02 01:18:07;;;;;;;;;;;22.30;34.70;;;;;;5108869;28;19980;-61
2022/06/02 01:20:52;;;;;;;;;;;22.30;34.50;;;;;;5119563;28;19924;-59
2022/06/02 01:23:36;;;;;;;;;;;22.30;34.60;;;;;;5121563;27;20036;-58
2022/06/02 01:26:16;;;;;;;;;;;22.30;34.60;;;;;;5125412;28;19970;-57
2022/06/02 01:28:47;;;;;;;;;;;22.30;34.50;;;;;;5127494;28;19923;-58
2022/06/02 01:31:14;;;;;;;;;;;21.30;36.40;;;;;;5103472;28;19962;-57
2022/06/02 01:34:01;;;;;;;;;;;21.30;36.40;;;;;;5108736;28;19929;-59
2022/06/02 01:36:30;;;;;;;;;;;21.40;36.10;;;;;;5126659;28;19927;-57
2022/06/02 01:39:13;;;;;;;;;;;21.50;36.10;;;;;;5100869;28;19932;-58
2022/06/02 01:41:38;;;;;;;;;;;21.50;36.10;;;;;;5121709;28;19941;-57
2022/06/02 01:44:10;;;;;;;;;;;21.40;36.10;;;;;;5126255;28;20138;-59
2022/06/02 01:46:38;;;;;;;;;;;21.50;36.10;;;;;;5101908;28;20025;-59
2022/06/02 01:49:23;;;;;;;;;;;21.40;36.10;;;;;;5108661;28;19938;-57
2022/06/02 01:51:55;;;;;;;;;;;21.40;36.20;;;;;;5126537;28;19930;-56
2022/06/02 01:54:24;;;;;;;;;;;21.40;36.20;;;;;;5121185;28;20010;-57
2022/06/02 01:56:56;;;;;;;;;;;21.50;36.20;;;;;;5105468;28;20279;-59
2022/06/02 01:59:26;;;;;;;;;;;21.40;36.20;;;;;;5121326;28;19942;-59
2022/06/02 02:01:56;;;;;;;;;;;21.40;36.30;;;;;;5120867;28;20294;-56
2022/06/02 02:04:27;;;;;;;;;;;21.40;36.30;;;;;;5107236;28;19984;-58
2022/06/02 02:06:59;;;;;;;;;;;21.40;36.30;;;;;;5121024;28;19924;-58
2022/06/02 02:09:49;;;;;;;;;;;21.40;36.40;;;;;;5102785;28;19924;-59
2022/06/02 02:12:27;;;;;;;;;;;21.40;36.30;;;;;;5090951;28;19927;-57
2022/06/02 02:14:56;;;;;;;;;;;21.40;36.40;;;;;;5100218;28;20029;-58
2022/06/02 02:17:43;;;;;;;;;;;21.30;36.40;;;;;;5101809;28;19923;-56
2022/06/02 02:20:12;;;;;;;;;;;21.50;36.40;;;;;;5106742;28;20336;-59
2022/06/02 02:22:52;;;;;;;;;;;21.40;36.40;;;;;;5104201;28;19934;-59
2022/06/02 02:25:30;;;;;;;;;;;21.40;36.50;;;;;;5099795;28;19931;-58
2022/06/02 02:28:06;;;;;;;;;;;21.40;36.40;;;;;;5126060;28;19934;-58
2022/06/02 02:30:35;;;;;;;;;;;21.30;36.60;;;;;;5107732;28;19930;-57
2022/06/02 02:33:19;;;;;;;;;;;21.30;36.60;;;;;;5118497;28;20184;-58
2022/06/02 02:36:11;;;;;;;;;;;21.30;36.70;;;;;;5122529;28;19923;-58
2022/06/02 02:38:42;;;;;;;;;;;21.30;36.60;;;;;;5101735;28;20010;-58
2022/06/02 02:41:24;;;;;;;;;;;21.30;36.70;;;;;;5085837;28;19923;-59
2022/06/02 02:44:07;;;;;;;;;;;21.40;36.50;;;;;;5120807;28;20191;-58
2022/06/02 02:46:34;;;;;;;;;;;21.30;36.50;;;;;;5107708;28;19927;-58
2022/06/02 02:49:18;;;;;;;;;;;21.30;36.50;;;;;;5120300;28;19923;-58
2022/06/02 02:51:49;;;;;;;;;;;21.40;36.30;;;;;;5118156;28;19924;-58
2022/06/02 02:54:21;;;;;;;;;;;21.40;36.30;;;;;;5125200;28;20875;-59
2022/06/02 02:56:55;;;;;;;;;;;21.40;36.40;;;;;;5120052;28;19935;-60
2022/06/02 02:59:31;;;;;;;;;;;21.50;36.30;;;;;;5120657;28;20620;-60
2022/06/02 03:02:05;;;;;;;;;;;21.40;36.40;;;;;;5125873;28;19975;-59
2022/06/02 03:05:03;;;;;;;;;;;21.40;36.30;;;;;;5102114;28;19968;-59
2022/06/02 03:07:29;;;;;;;;;;;21.30;36.30;;;;;;5085153;28;20325;-59
2022/06/02 03:09:55;;;;;;;;;;;21.50;36.10;;;;;;5123281;28;19980;-58
2022/06/02 03:12:30;;;;;;;;;;;21.40;36.10;;;;;;5119163;28;19938;-59
2022/06/02 03:15:02;;;;;;;;;;;21.40;36.10;;;;;;5101541;28;19924;-58
2022/06/02 03:17:28;;;;;;;;;;;21.40;36.00;;;;;;5125594;28;19927;-58
2022/06/02 03:20:14;;;;;;;;;;;21.40;36.00;;;;;;5120282;28;19923;-59
2022/06/02 03:22:59;;;;;;;;;;;21.40;36.00;;;;;;5088064;28;20123;-59
2022/06/02 03:25:24;;;;;;;;;;;21.40;36.00;;;;;;5125562;28;19980;-59
2022/06/02 03:28:09;;;;;;;;;;;21.40;36.00;;;;;;5117989;28;19923;-58
2022/06/02 03:30:39;;;;;;;;;;;20.90;36.70;;;;;;5118701;28;20387;-58
2022/06/02 03:33:24;;;;;;;;;;;21.10;36.60;;;;;;5106925;28;19924;-60
2022/06/02 03:36:08;;;;;;;;;;;21.80;35.20;;;;;;5120292;27;20564;-59
2022/06/02 03:38:45;;;;;;;;;;;21.80;35.10;;;;;;5123561;28;19930;-59
2022/06/02 03:41:25;;;;;;;;;;;21.80;35.20;;;;;;5108788;28;20026;-61
2022/06/02 03:43:53;;;;;;;;;;;21.80;35.00;;;;;;5104556;28;20320;-58
2022/06/02 03:46:30;;;;;;;;;;;21.80;35.00;;;;;;5121725;28;20362;-60
2022/06/02 03:48:59;;;;;;;;;;;21.80;34.90;;;;;;5109527;28;20048;-61
2022/06/02 03:51:26;;;;;;;;;;;21.90;34.80;;;;;;5122999;28;19924;-59
2022/06/02 03:53:57;;;;;;;;;;;21.80;34.80;;;;;;5105055;28;20365;-61
2022/06/02 03:56:29;;;;;;;;;;;21.90;34.60;;;;;;5110016;28;19982;-61
2022/06/02 03:59:00;;;;;;;;;;;21.90;34.70;;;;;;5088008;28;20375;-60
2022/06/02 04:01:27;;;;;;;;;;;21.90;34.80;;;;;;5104818;28;19954;-60
2022/06/02 04:03:52;;;;;;;;;;;21.90;35.10;;;;;;5109097;28;19931;-60
2022/06/02 04:06:44;;;;;;;;;;;21.90;35.20;;;;;;5121325;28;19923;-61
2022/06/02 04:09:16;;;;;;;;;;;21.90;35.20;;;;;;5119485;28;20002;-58
2022/06/02 04:14:59;;;;;;;;;;;21.90;35.30;;;;;;5106683;28;19937;-60
2022/06/02 04:17:28;;;;;;;;;;;22.00;34.90;;;;;;5123084;28;19956;-58
2022/06/02 04:22:53;;;;;;;;;;;22.20;34.30;;;;;;5125070;27;19961;-60
2022/06/02 04:25:48;;;;;;;;;;;22.10;34.20;;;;;;5121443;28;20370;-62
2022/06/02 04:28:17;;;;;;;;;;;22.10;34.10;;;;;;5108801;28;20021;-60
2022/06/02 04:31:02;;;;;;;;;;;22.10;34.10;;;;;;5128058;28;19923;-61
2022/06/02 04:33:32;;;;;;;;;;;22.10;34.30;;;;;;5122700;28;20282;-61
2022/06/02 04:36:16;;;;;;;;;;;22.20;34.10;;;;;;5122615;28;19929;-61
2022/06/02 04:38:42;;;;;;;;;;;22.20;34.10;;;;;;5127844;28;20013;-60
2022/06/02 04:41:08;;;;;;;;;;;22.10;34.10;;;;;;5120827;28;19930;-61
2022/06/02 04:43:39;;;;;;;;;;;22.30;33.90;;;;;;5122061;28;19930;-58
2022/06/02 04:46:17;;;;;;;;;;;22.30;33.90;;;;;;5109176;28;19927;-56
2022/06/02 04:48:49;;;;;;;;;;;22.30;34.00;;;;;;5121733;27;19927;-61
2022/06/02 04:51:24;;;;;;;;;;;22.30;33.90;;;;;;5124891;28;19927;-59
2022/06/02 04:54:09;;;;;;;;;;;21.50;35.30;;;;;;5109726;28;19927;-59
2022/06/02 04:56:44;;;;;;;;;;;21.00;36.20;;;;;;5102083;28;19924;-60
2022/06/02 04:59:11;;;;;;;;;;;21.30;35.90;;;;;;5102299;28;20006;-57
2022/06/02 05:01:46;;;;;;;;;;;21.30;35.90;;;;;;5107740;28;19923;-56
2022/06/02 05:04:27;;;;;;;;;;;21.40;35.80;;;;;;5121756;28;19927;-58
2022/06/02 05:06:56;;;;;;;;;;;21.30;35.90;;;;;;5103907;28;19923;-56
2022/06/02 05:09:33;;;;;;;;;;;21.30;35.90;;;;;;5127686;28;20366;-58
2022/06/02 05:12:08;;;;;;;;;;;21.30;36.00;;;;;;5103817;28;19954;-58
2022/06/02 05:14:37;;;;;;;;;;;21.30;36.00;;;;;;5122132;28;19923;-59
2022/06/02 05:17:02;;;;;;;;;;;21.40;36.00;;;;;;5107876;28;19924;-57
2022/06/02 05:19:47;;;;;;;;;;;21.50;35.90;;;;;;5119561;28;19927;-58
2022/06/02 05:22:32;;;;;;;;;;;21.40;36.10;;;;;;5123707;27;20493;-57
2022/06/02 05:25:24;;;;;;;;;;;21.50;35.90;;;;;;5126912;28;19984;-58
2022/06/02 05:28:08;;;;;;;;;;;21.50;35.90;;;;;;5097260;28;19931;-58
2022/06/02 05:30:41;;;;;;;;;;;21.60;35.70;;;;;;5121872;28;20339;-60
2022/06/02 05:33:19;;;;;;;;;;;21.50;35.90;;;;;;5108626;28;19978;-59
2022/06/02 05:36:07;;;;;;;;;;;21.50;35.90;;;;;;5120164;28;20090;-59
2022/06/02 05:38:52;;;;;;;;;;;21.50;35.90;;;;;;5120093;28;19958;-57
2022/06/02 05:41:30;;;;;;;;;;;21.50;35.70;;;;;;5126599;28;19941;-58
2022/06/02 05:44:12;;;;;;;;;;;21.50;35.80;;;;;;5123308;28;20328;-59
2022/06/02 05:46:41;;;;;;;;;;;21.60;35.60;;;;;;5101400;28;19931;-58
2022/06/02 05:49:06;;;;;;;;;;;21.50;35.60;;;;;;5126874;28;19927;-59
2022/06/02 05:51:38;;;;;;;;;;;21.50;35.50;;;;;;5121349;28;20310;-58
2022/06/02 05:54:11;;;;;;;;;;;21.50;35.30;;;;;;5101925;28;19930;-59
2022/06/02 05:56:44;;;;;;;;;;;21.60;35.10;;;;;;5125242;28;20022;-59
2022/06/02 05:59:18;;;;;;;;;;;21.50;35.20;;;;;;5101635;28;20383;-56
2022/06/02 06:01:47;;;;;;;;;;;21.50;35.30;;;;;;5102716;28;19987;-58
2022/06/02 06:04:23;;;;;;;;;;;21.50;35.30;;;;;;5126873;28;20017;-60
2022/06/02 06:06:53;;;;;;;;;;;21.50;35.20;;;;;;5102750;28;20443;-59
2022/06/02 06:09:36;;;;;;;;;;;21.60;35.10;;;;;;5102026;28;19927;-58
2022/06/02 06:12:26;;;;;;;;;;;21.60;35.10;;;;;;5126390;28;19991;-58
2022/06/02 06:14:57;;;;;;;;;;;21.50;35.00;;;;;;5119946;28;19930;-57
2022/06/02 06:17:39;;;;;;;;;;;21.60;35.10;;;;;;5120895;28;19931;-57
2022/06/02 06:20:05;;;;;;;;;;;21.60;35.00;;;;;;5107568;28;20494;-59
2022/06/02 06:22:49;;;;;;;;;;;21.60;35.10;;;;;;5120975;27;20010;-59
2022/06/02 06:25:21;;;;;;;;;;;21.50;35.20;;;;;;5121072;28;19923;-59
2022/06/02 06:27:53;;;;;;;;;;;21.50;35.20;;;;;;5126245;28;19924;-57
2022/06/02 06:30:38;;;;;;;;;;;21.60;35.30;;;;;;5102361;28;20375;-59
2022/06/02 06:33:27;;;;;;;;;;;21.60;35.30;;;;;;5118794;28;20022;-59
2022/06/02 06:36:11;;;;;;;;;;;21.60;35.30;;;;;;5120312;28;20227;-59
2022/06/02 06:38:45;;;;;;;;;;;21.60;35.30;;;;;;5125863;28;19932;-57
2022/06/02 06:41:14;;;;;;;;;;;21.60;35.40;;;;;;5102685;28;19927;-59
2022/06/02 06:43:55;;;;;;;;;;;21.60;35.30;;;;;;5102477;28;19923;-58
2022/06/02 06:46:40;;;;;;;;;;;21.60;35.40;;;;;;5106978;28;19928;-58
2022/06/02 06:49:33;;;;;;;;;;;21.60;35.40;;;;;;5119473;28;19927;-58
2022/06/02 06:52:08;;;;;;;;;;;21.60;35.50;;;;;;5119147;28;19927;-59
2022/06/02 06:54:40;;;;;;;;;;;21.00;36.50;;;;;;5125629;28;20010;-58
2022/06/02 06:57:10;;;;;;;;;;;20.60;37.20;;;;;;5102003;28;19931;-60
2022/06/02 06:59:51;;;;;;;;;;;21.80;35.30;;;;;;5120467;28;19930;-61
2022/06/02 07:02:20;;;;;;;;;;;21.90;34.90;;;;;;5126104;28;19930;-61
2022/06/02 07:04:57;;;;;;;;;;;22.10;34.70;;;;;;5120575;28;20322;-60
2022/06/02 07:07:39;;;;;;;;;;;22.20;34.60;;;;;;5119536;28;20271;-60
2022/06/02 07:10:10;;;;;;;;;;;22.30;34.30;;;;;;5106551;28;20018;-58
2022/06/02 07:12:53;;;;;;;;;;;22.30;34.40;;;;;;5103932;28;19923;-58
2022/06/02 07:15:26;;;;;;;;;;;22.10;34.60;;;;;;5107712;28;19930;-58
2022/06/02 07:18:04;;;;;;;;;;;21.20;36.40;;;;;;5129430;28;20470;-59
2022/06/02 07:20:48;;;;;;;;;;;21.30;36.30;;;;;;5123683;28;20297;-59
2022/06/02 07:23:33;;;;;;;;;;;21.60;35.90;;;;;;5123187;27;20045;-59
2022/06/02 07:26:18;;;;;;;;;;;21.60;35.90;;;;;;5126993;28;20010;-59
2022/06/02 07:29:07;;;;;;;;;;;21.60;36.00;;;;;;5127311;28;19924;-56
2022/06/02 07:31:53;;;;;;;;;;;21.60;36.00;;;;;;5093571;28;19924;-57
2022/06/02 07:34:24;;;;;;;;;;;21.70;35.90;;;;;;5122950;28;19930;-59
2022/06/02 07:36:54;;;;;;;;;;;21.70;36.00;;;;;;5109183;28;20006;-58
2022/06/02 07:39:28;;;;;;;;;;;21.70;36.00;;;;;;5105090;28;19933;-59
2022/06/02 07:42:12;;;;;;;;;;;21.70;36.00;;;;;;5104790;28;20018;-59
2022/06/02 07:44:51;;;;;;;;;;;21.60;36.00;;;;;;5127020;28;19927;-59
2022/06/02 07:47:21;;;;;;;;;;;21.80;35.80;;;;;;5121876;28;20306;-58
2022/06/02 07:49:53;;;;;;;;;;;21.80;36.00;;;;;;5122769;28;20019;-59
2022/06/02 07:52:37;;;;;;;;;;;21.80;35.80;;;;;;5128712;28;19924;-59
2022/06/02 07:55:12;;;;;;;;;;;21.80;35.90;;;;;;5123129;28;20010;-58
2022/06/02 07:57:48;;;;;;;;;;;21.80;35.80;;;;;;5104938;28;19924;-58
2022/06/02 08:00:14;;;;;;;;;;;21.80;35.80;;;;;;5128436;28;20324;-59
2022/06/02 08:02:58;;;;;;;;;;;21.80;35.90;;;;;;5121660;28;20314;-58
2022/06/02 08:05:40;;;;;;;;;;;21.80;35.80;;;;;;5121128;28;19924;-58
2022/06/02 08:08:19;;;;;;;;;;;21.80;35.80;;;;;;5128005;28;19963;-59
2022/06/02 08:10:45;;;;;;;;;;;21.80;35.70;;;;;;5122951;28;20017;-58
2022/06/02 08:13:14;;;;;;;;;;;21.90;35.60;;;;;;5123137;28;19947;-59
2022/06/02 08:16:00;;;;;;;;;;;21.90;35.70;;;;;;5128533;28;20305;-59
2022/06/02 08:18:30;;;;;;;;;;;21.90;35.70;;;;;;5104411;28;19924;-59
2022/06/02 08:20:59;;;;;;;;;;;21.80;35.80;;;;;;5121809;28;19923;-58
2022/06/02 08:23:24;;;;;;;;;;;21.80;35.90;;;;;;5106924;28;19927;-59
2022/06/02 08:25:55;;;;;;;;;;;21.80;35.80;;;;;;5122065;28;19932;-60
2022/06/02 08:28:35;;;;;;;;;;;21.90;35.60;;;;;;5122220;28;19924;-59
2022/06/02 08:31:04;;;;;;;;;;;21.90;35.50;;;;;;5128062;28;19923;-58
2022/06/02 08:33:51;;;;;;;;;;;22.00;35.50;;;;;;5104134;28;19930;-58
2022/06/02 08:36:17;;;;;;;;;;;21.90;35.50;;;;;;5122162;28;20297;-60
2022/06/02 08:39:02;;;;;;;;;;;22.00;35.30;;;;;;5127767;28;20423;-58
2022/06/02 08:41:46;;;;;;;;;;;21.90;35.40;;;;;;5101470;28;19968;-58
2022/06/02 08:44:12;;;;;;;;;;;21.90;35.40;;;;;;5103587;28;19930;-59
2022/06/02 08:46:47;;;;;;;;;;;21.90;35.30;;;;;;5127548;28;19924;-58
2022/06/02 08:49:22;;;;;;;;;;;21.90;35.20;;;;;;5122452;28;19931;-58
2022/06/02 08:52:14;;;;;;;;;;;22.00;35.20;;;;;;5103671;28;20439;-58
2022/06/02 08:54:46;;;;;;;;;;;22.00;35.20;;;;;;5090451;28;19927;-59
2022/06/02 08:57:29;;;;;;;;;;;22.00;35.20;;;;;;5122343;28;19924;-58
2022/06/02 09:00:17;;;;;;;;;;;22.00;35.20;;;;;;5101400;28;20038;-57
2022/06/02 09:03:02;;;;;;;;;;;22.00;35.30;;;;;;5126986;28;19979;-59
2022/06/02 09:06:01;;;;;;;;;;;22.00;35.30;;;;;;5127312;28;19935;-59
2022/06/02 09:09:02;;;;;;;;;;;22.00;35.30;;;;;;5087442;28;20014;-58
2022/06/02 09:11:39;;;;;;;;;;;22.10;35.40;;;;;;5058465;28;20392;-54
2022/06/02 09:14:14;;;;;;;;;;;22.10;35.60;;;;;;5118406;28;20023;-59
2022/06/02 09:16:52;;;;;;;;;;;20.50;38.70;;;;;;5120312;28;20072;-58
2022/06/02 09:19:38;;;;;;;;;;;20.70;37.90;;;;;;5120770;28;19927;-58
2022/06/02 09:22:06;;;;;;;;;;;20.80;37.80;;;;;;5126891;27;19923;-56
2022/06/02 09:24:41;;;;;;;;;;;21.80;36.20;;;;;;5122390;28;20022;-55
2022/06/02 09:27:19;;;;;;;;;;;20.80;38.40;;;;;;5122388;28;20395;-55
2022/06/02 09:29:48;;;;;;;;;;;20.10;39.30;;;;;;5127784;28;20018;-58
2022/06/02 09:32:27;;;;;;;;;;;20.00;39.40;;;;;;5122750;28;19924;-58
2022/06/02 09:35:07;;;;;;;;;;;20.00;39.80;;;;;;5103120;28;20435;-55
2022/06/02 09:37:52;;;;;;;;;;;19.70;40.00;;;;;;5108184;28;20340;-51
2022/06/02 09:40:21;;;;;;;;;;;19.50;40.50;;;;;;5127400;28;19966;-52
2022/06/02 09:42:53;;;;;;;;;;;19.60;40.20;;;;;;5123133;28;19930;-51
2022/06/02 09:45:34;;;;;;;;;;;19.70;40.30;;;;;;5127215;28;19923;-49
2022/06/02 09:48:00;;;;;;;;;;;19.50;40.90;;;;;;5127744;28;20027;-46
2022/06/02 09:50:38;;;;;;;;;;;19.60;40.60;;;;;;5123403;28;19927;-48
2022/06/02 09:53:10;;;;;;;;;;;19.90;39.80;;;;;;5126320;28;19923;-50
2022/06/02 09:55:44;;;;;;;;;;;19.80;40.10;;;;;;5124413;28;19956;-46
2022/06/02 09:58:30;;;;;;;;;;;19.70;40.70;;;;;;5123069;28;20622;-46
2022/06/02 10:00:58;;;;;;;;;;;19.80;40.80;;;;;;5113785;28;19932;-52
2022/06/02 10:03:44;;;;;;;;;;;19.50;40.90;;;;;;5108281;28;19930;-48
2022/06/02 10:06:10;;;;;;;;;;;19.60;40.70;;;;;;5123326;28;19923;-48
2022/06/02 10:08:45;;;;;;;;;;;19.70;40.70;;;;;;5126023;28;19930;-52
2022/06/02 10:11:29;;;;;;;;;;;20.80;38.80;;;;;;5125998;28;19924;-46
2022/06/02 10:13:59;;;;;;;;;;;21.80;36.60;;;;;;5119487;28;19924;-45
2022/06/02 10:16:38;;;;;;;;;;;20.30;39.20;;;;;;5104890;28;19968;-50
2022/06/02 10:19:15;;;;;;;;;;;20.00;40.20;;;;;;5126589;28;19928;-47
2022/06/02 10:21:50;;;;;;;;;;;19.70;40.60;;;;;;5102377;28;19969;-48
2022/06/02 10:24:35;;;;;;;;;;;19.70;40.90;;;;;;5121529;28;19930;-47
2022/06/02 10:27:01;;;;;;;;;;;19.70;41.00;;;;;;5126130;28;20072;-48
2022/06/02 10:29:30;;;;;;;;;;;19.80;40.90;;;;;;5121045;28;19924;-45
2022/06/02 10:32:01;;;;;;;;;;;19.80;41.00;;;;;;5121236;28;19971;-53
2022/06/02 10:34:39;;;;;;;;;;;19.70;41.40;;;;;;5107959;28;19928;-47
2022/06/02 10:37:09;;;;;;;;;;;19.80;41.20;;;;;;5101564;28;19953;-45
2022/06/02 10:39:56;;;;;;;;;;;19.90;40.90;;;;;;5102964;28;20018;-52
2022/06/02 10:42:34;;;;;;;;;;;19.60;41.70;;;;;;5108076;28;19934;-46
2022/06/02 10:45:13;;;;;;;;;;;19.50;41.80;;;;;;5102733;28;20403;-46
2022/06/02 10:47:45;;;;;;;;;;;20.80;39.40;;;;;;5120351;28;19928;-45
2022/06/02 10:50:14;;;;;;;;;;;21.80;37.20;;;;;;5104900;28;19923;-46
2022/06/02 10:53:03;;;;;;;;;;;20.20;40.70;;;;;;5120269;28;20019;-43
2022/06/02 10:55:42;;;;;;;;;;;20.00;41.10;;;;;;5101995;28;20188;-49
2022/06/02 10:58:22;;;;;;;;;;;19.70;41.90;;;;;;5125350;28;22270;-46
2022/06/02 11:01:07;;;;;;;;;;;19.50;42.10;;;;;;5102482;28;19924;-45
2022/06/02 11:03:45;;;;;;;;;;;19.70;41.80;;;;;;5120982;28;20293;-46
2022/06/02 11:06:28;;;;;;;;;;;19.70;41.90;;;;;;5125302;28;19923;-46
2022/06/02 11:09:13;;;;;;;;;;;20.00;41.00;;;;;;5101400;28;20377;-45
2022/06/02 11:12:00;;;;;;;;;;;20.00;41.40;;;;;;5120845;28;19927;-45
2022/06/02 11:14:34;;;;;;;;;;;19.70;42.20;;;;;;5124165;28;19924;-55
2022/06/02 11:17:00;;;;;;;;;;;19.50;42.40;;;;;;5125995;28;20018;-45
2022/06/02 11:19:44;;;;;;;;;;;19.60;42.40;;;;;;5121165;28;19979;-46
2022/06/02 11:22:22;;;;;;;;;;;19.60;42.30;;;;;;5123797;27;19927;-52
2022/06/02 11:25:08;;;;;;;;;;;19.50;42.20;;;;;;5124228;28;19923;-50
2022/06/02 11:27:42;;;;;;;;;;;19.70;41.70;;;;;;5119267;28;19940;-47
2022/06/02 11:30:27;;;;;;;;;;;19.80;41.60;;;;;;5102985;28;20006;-45
2022/06/02 11:33:14;;;;;;;;;;;19.80;41.50;;;;;;5125844;28;20032;-47
2022/06/02 11:35:58;;;;;;;;;;;20.70;40.00;;;;;;5121519;28;20038;-46
2022/06/02 11:38:29;;;;;;;;;;;21.90;37.60;;;;;;5120655;28;20074;-47
2022/06/02 11:41:11;;;;;;;;;;;20.50;40.30;;;;;;5107243;28;19930;-47
2022/06/02 11:43:39;;;;;;;;;;;19.80;41.60;;;;;;5118944;28;20018;-48
2022/06/02 11:46:14;;;;;;;;;;;19.90;41.70;;;;;;5100442;28;19963;-47
2022/06/02 11:48:51;;;;;;;;;;;19.60;42.30;;;;;;5124309;28;19975;-49
2022/06/02 11:51:17;;;;;;;;;;;19.80;41.80;;;;;;5100708;28;20378;-45
2022/06/02 11:54:02;;;;;;;;;;;19.40;42.70;;;;;;5120310;28;19966;-47
2022/06/02 11:56:44;;;;;;;;;;;19.80;41.80;;;;;;5125660;27;19924;-46
2022/06/02 11:59:33;;;;;;;;;;;19.80;41.90;;;;;;5087971;28;20014;-47
2022/06/02 12:02:17;;;;;;;;;;;19.90;41.70;;;;;;5105692;28;19982;-45
2022/06/02 12:04:58;;;;;;;;;;;20.00;41.70;;;;;;5126172;28;19929;-55
2022/06/02 12:07:31;;;;;;;;;;;19.60;42.60;;;;;;5128062;28;20471;-45
2022/06/02 12:10:07;;;;;;;;;;;19.80;42.50;;;;;;5105176;28;19924;-47
2022/06/02 12:12:51;;;;;;;;;;;21.20;39.60;;;;;;5125871;28;19927;-52
2022/06/02 12:15:36;;;;;;;;;;;21.70;38.60;;;;;;5128799;28;20322;-45
2022/06/02 12:18:28;;;;;;;;;;;20.30;41.90;;;;;;5123456;28;19927;-47
2022/06/02 12:20:56;;;;;;;;;;;19.80;42.70;;;;;;5081422;28;19923;-46
2022/06/02 12:23:36;;;;;;;;;;;19.90;42.40;;;;;;5126958;28;20363;-47
2022/06/02 12:26:05;;;;;;;;;;;19.80;42.70;;;;;;5122848;28;19944;-46
2022/06/02 12:28:40;;;;;;;;;;;19.70;42.80;;;;;;5123063;28;20331;-48
2022/06/02 12:31:20;;;;;;;;;;;19.80;43.00;;;;;;5128301;28;20457;-45
2022/06/02 12:33:49;;;;;;;;;;;19.80;42.90;;;;;;5104849;28;20018;-47
2022/06/02 12:36:27;;;;;;;;;;;19.80;43.10;;;;;;5104347;28;20360;-45
2022/06/02 12:38:57;;;;;;;;;;;20.00;42.90;;;;;;5126153;28;20018;-46
2022/06/02 12:41:25;;;;;;;;;;;20.00;42.40;;;;;;5103241;28;19934;-46
2022/06/02 12:43:56;;;;;;;;;;;20.00;42.50;;;;;;5104145;28;20406;-46
2022/06/02 12:46:41;;;;;;;;;;;19.80;43.20;;;;;;5109404;28;19928;-47
2022/06/02 12:49:19;;;;;;;;;;;19.80;43.20;;;;;;5122739;28;19931;-47
2022/06/02 12:51:57;;;;;;;;;;;19.90;43.00;;;;;;5122914;28;19930;-53
2022/06/02 12:54:26;;;;;;;;;;;19.90;43.00;;;;;;5127726;28;20015;-46
2022/06/02 12:56:52;;;;;;;;;;;19.80;43.20;;;;;;5121068;28;19991;-47
2022/06/02 12:59:20;;;;;;;;;;;19.80;43.10;;;;;;5120945;28;20017;-50
2022/06/02 13:01:58;;;;;;;;;;;19.70;43.40;;;;;;5127378;28;20061;-48
2022/06/02 13:04:31;;;;;;;;;;;20.00;42.90;;;;;;5122353;28;20283;-47
2022/06/02 13:07:15;;;;;;;;;;;20.00;43.00;;;;;;5103184;28;19934;-49
2022/06/02 13:09:53;;;;;;;;;;;19.90;43.40;;;;;;5127168;27;19927;-47
2022/06/02 13:12:25;;;;;;;;;;;20.00;43.30;;;;;;5122272;28;20023;-45
2022/06/02 13:14:57;;;;;;;;;;;19.80;43.40;;;;;;5101469;28;20668;-51
2022/06/02 13:17:41;;;;;;;;;;;20.00;42.90;;;;;;5125687;28;19930;-47
2022/06/02 13:20:26;;;;;;;;;;;20.00;43.00;;;;;;5121879;28;20367;-47
2022/06/02 13:23:00;;;;;;;;;;;19.80;43.20;;;;;;5103405;28;20264;-46
2022/06/02 13:25:32;;;;;;;;;;;19.80;43.50;;;;;;5109004;28;20433;-46
2022/06/02 13:28:01;;;;;;;;;;;20.00;43.40;;;;;;5121982;28;20018;-48
2022/06/02 13:30:45;;;;;;;;;;;20.10;43.00;;;;;;5121878;28;20366;-46
2022/06/02 13:33:16;;;;;;;;;;;19.90;43.60;;;;;;5126397;28;20367;-48
2022/06/02 13:36:01;;;;;;;;;;;19.90;43.60;;;;;;5101392;28;20037;-49
2022/06/02 13:38:45;;;;;;;;;;;19.90;43.40;;;;;;5121237;28;20018;-47
2022/06/02 13:41:31;;;;;;;;;;;20.00;43.40;;;;;;5126845;28;19934;-51
2022/06/02 13:43:57;;;;;;;;;;;19.80;43.80;;;;;;5067321;28;19924;-49
2022/06/02 13:46:41;;;;;;;;;;;20.00;43.40;;;;;;5121710;28;19928;-48
2022/06/02 13:49:13;;;;;;;;;;;19.80;44.10;;;;;;5126706;28;20018;-47
2022/06/02 13:51:58;;;;;;;;;;;19.90;43.80;;;;;;5121201;28;19923;-53
2022/06/02 13:57:31;;;;;;;;;;;20.20;43.00;;;;;;5121084;28;19934;-54
2022/06/02 14:00:01;;;;;;;;;;;19.80;43.80;;;;;;5110357;28;20355;-50
2022/06/02 14:02:30;;;;;;;;;;;19.80;43.80;;;;;;5121634;28;19931;-48
2022/06/02 14:05:11;;;;;;;;;;;19.90;43.60;;;;;;5121357;28;20365;-50
2022/06/02 14:07:44;;;;;;;;;;;19.90;43.80;;;;;;5126582;28;19952;-49
2022/06/02 14:10:28;;;;;;;;;;;19.80;44.10;;;;;;5101798;28;19923;-47
2022/06/02 14:12:54;;;;;;;;;;;19.90;43.90;;;;;;5119346;28;20649;-48
2022/06/02 14:15:31;;;;;;;;;;;19.80;44.00;;;;;;5125789;28;19924;-46
2022/06/02 14:18:09;;;;;;;;;;;20.00;43.50;;;;;;5120825;28;20300;-47
2022/06/02 14:21:04;;;;;;;;;;;20.10;43.50;;;;;;5101024;27;19996;-47
2022/06/02 14:23:30;;;;;;;;;;;19.80;44.00;;;;;;5104377;28;20013;-49
2022/06/02 14:25:58;;;;;;;;;;;19.80;44.20;;;;;;5120719;28;20463;-49
2022/06/02 14:28:42;;;;;;;;;;;19.80;44.00;;;;;;5101210;28;20236;-51
2022/06/02 14:31:15;;;;;;;;;;;20.00;43.50;;;;;;5124471;28;20397;-48
2022/06/02 14:33:43;;;;;;;;;;;19.80;43.80;;;;;;5101901;28;19927;-48
2022/06/02 14:36:19;;;;;;;;;;;20.10;43.40;;;;;;5120509;28;20007;-47
2022/06/02 14:38:54;;;;;;;;;;;20.00;43.70;;;;;;5108205;28;19924;-47
2022/06/02 14:41:27;;;;;;;;;;;20.10;43.70;;;;;;5120859;28;19927;-48
2022/06/02 14:44:03;;;;;;;;;;;20.00;43.90;;;;;;5120709;28;20192;-47
2022/06/02 14:46:41;;;;;;;;;;;19.80;44.40;;;;;;5125689;28;20011;-52
2022/06/02 14:49:10;;;;;;;;;;;20.00;44.10;;;;;;5118383;28;19923;-51
2022/06/02 14:51:44;;;;;;;;;;;20.00;44.00;;;;;;5120037;28;20489;-49
2022/06/02 14:54:29;;;;;;;;;;;19.80;44.60;;;;;;5106773;28;19932;-48
2022/06/02 14:56:59;;;;;;;;;;;19.70;45.00;;;;;;5102400;28;20443;-50
2022/06/02 14:59:34;;;;;;;;;;;19.80;44.80;;;;;;5101597;28;19935;-48
2022/06/02 15:02:12;;;;;;;;;;;19.80;44.90;;;;;;5105324;28;19939;-47
2022/06/02 15:04:57;;;;;;;;;;;19.70;45.30;;;;;;5120254;28;19972;-50
2022/06/02 15:07:42;;;;;;;;;;;19.80;44.90;;;;;;5117619;28;19927;-46
2022/06/02 15:10:16;;;;;;;;;;;19.80;45.00;;;;;;5125053;28;20010;-46
2022/06/02 15:13:05;;;;;;;;;;;19.90;44.60;;;;;;5101416;28;20008;-51
2022/06/02 15:15:37;;;;;;;;;;;20.00;44.50;;;;;;5071966;28;20381;-47
2022/06/02 15:18:07;;;;;;;;;;;19.80;44.90;;;;;;5125562;28;19935;-49
2022/06/02 15:20:37;;;;;;;;;;;19.90;45.00;;;;;;5120208;28;19954;-53
2022/06/02 15:23:09;;;;;;;;;;;19.90;45.00;;;;;;5099427;28;20340;-47
2022/06/02 15:25:53;;;;;;;;;;;19.90;45.00;;;;;;5102316;28;19948;-48